Fes-Sais, Morocco

1:56 AM WEST on August 21, 2014 (GMT +0100)
Saiss | Change Station
CLOSE
Current Station
Airport
Location: Fes-Sais,
Elevation: 1900 ft
Nearby Weather Stations

Elev 1900 ft 33.93 °N, 4.97 °W | Updated 56 minutes ago

Clear
Clear
70 °F
Feels Like 70 °F
N
6
Wind Variable Wind from South

Today
High -- | Low -- °F
--% Chance of Precip.
Yesterday
High -- | Low -- °F
Precip. -- in
6:45 AM 7:59 PM
Waning Crescent, 18% visible
Pressure 30.09 in
Visibility -9999.0 miles
Clouds
Dew Point 48 °F
Humidity 46%
Rainfall 0.00 in
Snow Depth Not available.
UV Not available.
Pollen Not available.
Air Quality Not available.
Flu Activity Not available.
METAR GMFF 210000Z 18005KT 090V200 CAVOK 21/09 Q1019 NOSIG

More Conditions Fewer Conditions

Pressure 30.09 in
Visibility -9999.0 miles
Clouds
Dew Point 48 °F
Humidity 46%
Rainfall 0.00 in
Snow Depth Not available.
UV Not available.
Pollen Not available.
Air Quality Not available.
Flu Activity Not available.
METAR GMFF 210000Z 18005KT 090V200 CAVOK 21/09 Q1019 NOSIG

More Conditions Fewer Conditions

10-Day Weather Forecast

Almanac

Astronomy

Aug. 21, 2014 Rise Set
Actual Time 6:45 AM WEST 7:59 PM WEST
Civil Twilight 6:19 AM WEST 8:25 PM WEST
Nautical Twilight 5:48 AM WEST 8:56 PM WEST
Astronomical Twilight 5:16 AM WEST 9:29 PM WEST
Moon 3:08 AM WEST 5:14 PM WEST
Length of Visible Light 14h 06m
Length of Day
13h 14m
Tomorrow will be 1m 55s shorter.
Waning Crescent, 18% of the Moon is Illuminated
Aug 20
Waning Crescent
Aug 25
New
Sep 2
First Quarter
Sep 8
Full
Sep 15
Last Quarter

Yesterday's Extremes

Country Highs Country Lows

Community

WunderPhotos

Upload Photos

1,745,823 photos uploaded!

WunderBlogs® & News

Nearby

Snow Depth

Not available.

Earthquake Activity

City Distance Mag. Time & Date
No recent earthquake activity has been reported nearby.
Minimum magnitude displayed is 2.5.

Coastal Water Temperatures

Place Temperature
No Stations Reporting

Nearby Weather Stations